Flight Track Log - Related Links

Times and Time Zones

All times are in EDT time to prevent confusion due to time zone crossing. See the EJA831 flight status page for this flight to view local times or setup timezone preferences in your user account.

Time Position Orientation Groundspeed Altitude Reporting Facility
EDT Latitude Longitude Course Direction KTS MPH feet Rate Location/Type
Thu 01:42:11 PM 43.9714 -92.5489 203° Southwest 247 284 7,900  Level Minneapolis Center
Thu 01:43:13 PM 43.9339 -92.6253 236° Southwest 267 307 11,300 3,048 Climbing Minneapolis Center
Thu 01:44:15 PM 43.8558 -92.6572 196° South 289 333 14,200 2,419 Climbing Minneapolis Center
Thu 01:45:17 PM 43.7539 -92.7008 197° South 337 388 16,300 1,839 Climbing Minneapolis Center
Thu 01:46:19 PM 43.6556 -92.7417 197° South 365 420 18,000 1,728 Climbing Minneapolis Center
Thu 01:47:00 PM 43.3615 -92.7458 203° Southwest  Level FlightAware Approximate
Thu 01:47:22 PM 43.5531 -92.7858 197° South 382 440 19,900  Level Minneapolis Center
Thu 01:48:24 PM 43.4500 -92.8289 197° South 389 448 21,800 1,984 Climbing Minneapolis Center
Thu 01:49:26 PM 43.3247 -92.8839 198° South 397 457 24,000 1,984 Climbing Minneapolis Center
Thu 01:50:28 PM 43.2194 -92.9267 196° South 397 457 25,900 1,839 Climbing Minneapolis Center
Thu 01:51:30 PM 43.1150 -92.9700 197° South 397 457 27,800 1,548 Climbing Minneapolis Center
Thu 01:52:32 PM 43.0081 -93.0144 197° South 404 465 29,100 1,210 Climbing Minneapolis Center
Thu 01:53:34 PM 42.8731 -93.0708 197° South 423 487 30,300 1,065 Climbing Minneapolis Center
Thu 01:54:36 PM 42.7572 -93.1186 197° South 435 501 31,300 968 Climbing Minneapolis Center
Thu 01:55:38 PM 42.6406 -93.1664 197° South 442 509 32,300 816 Climbing Minneapolis Center
Thu 01:56:41 PM 42.5225 -93.2144 197° South 447 514 33,000 720 Climbing Minneapolis Center
Thu 01:57:43 PM 42.3772 -93.2731 197° South 455 524 33,800 677 Climbing Minneapolis Center
Thu 01:58:45 PM 42.2564 -93.3231 197° South 459 528 34,400 629 Climbing Minneapolis Center
Thu 01:59:47 PM 42.1347 -93.3703 196° South 459 528 35,100 726 Climbing Minneapolis Center
Thu 02:00:49 PM 42.0161 -93.4192 197° South 453 521 35,900 823 Climbing Minneapolis Center
Thu 02:01:51 PM 41.8850 -93.4736 197° South 456 525 36,800 823 Climbing Minneapolis Center
Thu 02:02:53 PM 41.7661 -93.5183 196° South 451 519 37,600 581 Climbing Minneapolis Center
Thu 02:03:55 PM 41.6469 -93.5644 196° South 449 517 38,000 194 Climbing Minneapolis Center
Thu 02:04:57 PM 41.5031 -93.6217 197° South 451 519 38,000  Level Minneapolis Center
Thu 02:05:59 PM 41.3914 -93.6928 206° Southwest 448 516 38,000  Level Minneapolis Center
Thu 02:07:02 PM 41.2928 -93.7783 213° Southwest 436 502 38,000  Level Minneapolis Center
Thu 02:08:04 PM 41.2014 -93.8558 213° Southwest 415 478 38,000  Level Minneapolis Center
Thu 02:09:06 PM 41.1103 -93.9381 214° Southwest 404 465 38,000  Level Minneapolis Center
Thu 02:10:08 PM 40.9981 -94.0358 213° Southwest 405 466 38,000  Level Minneapolis Center
Thu 02:11:10 PM 40.9056 -94.1153 213° Southwest 403 464 38,000  Level Minneapolis Center
Thu 02:12:12 PM 40.8136 -94.1967 214° Southwest 403 464 38,000  Level Minneapolis Center
Thu 02:13:14 PM 40.7214 -94.2756 213° Southwest 401 461 38,000  Level Minneapolis Center
Thu 02:14:16 PM 40.6100 -94.3711 213° Southwest 401 461 38,000  Level Minneapolis Center
Thu 02:15:18 PM 40.5189 -94.4500 213° Southwest 399 459 38,000  Level Minneapolis Center
Thu 02:16:20 PM 40.4281 -94.5281 213° Southwest 396 456 38,000  Level Minneapolis Center
Thu 02:17:23 PM 40.3233 -94.6175 213° Southwest 396 456 38,000  Level Minneapolis Center
Thu 02:17:46 PM 40.3014 -94.6386 216° Southwest 395 455 38,000  Level Kansas City Center
Thu 02:18:46 PM 40.1975 -94.7250 212° Southwest 394 453 38,000 -194 Level Kansas City Center
Thu 02:19:50 PM 40.1086 -94.7997 213° Southwest 396 456 37,600 -629 Descending Kansas City Center
Thu 02:20:50 PM 40.0181 -94.8767 213° Southwest 403 464 36,700 -1,016 Descending Kansas City Center
Thu 02:21:54 PM 39.9253 -94.9833 221° Southwest 398 458 35,500 -1,016 Descending Kansas City Center
Thu 02:22:54 PM 39.8464 -95.0758 222° Southwest 397 457 34,600 -720 Descending Kansas City Center
Thu 02:23:59 PM 39.7533 -95.1861 222° Southwest 404 465 34,000 -286 Descending Kansas City Center
Thu 02:25:00 PM 39.6758 -95.2781 222° Southwest 398 458 34,000 -295 Level Kansas City Center
Thu 02:26:01 PM 39.5856 -95.3836 222° Southwest 393 452 33,400 -672 Descending Kansas City Center
Thu 02:27:05 PM 39.5058 -95.4769 222° Southwest 403 464 32,600 -871 Descending Kansas City Center
Thu 02:28:05 PM 39.4125 -95.5869 222° Southwest 410 472 31,600 -919 Descending Kansas City Center
Thu 02:29:09 PM 39.3322 -95.6794 222° Southwest 408 470 30,700 -912 Descending Kansas City Center
Thu 02:30:10 PM 39.2386 -95.7875 222° Southwest 407 468 29,700 -885 Descending Kansas City Center
Thu 02:31:11 PM 39.1578 -95.8786 221° Southwest 406 467 28,900 -912 Descending Kansas City Center
Thu 02:32:15 PM 39.0647 -95.9858 222° Southwest 402 463 27,800 -912 Descending Kansas City Center
Thu 02:33:16 PM 38.9858 -96.0764 222° Southwest 399 459 27,000 -1,016 Descending Kansas City Center
Thu 02:34:19 PM 38.8936 -96.1817 222° Southwest 398 458 25,700 -1,306 Descending Kansas City Center
Thu 02:35:20 PM 38.8136 -96.2744 222° Southwest 403 464 24,300 -1,415 Descending Kansas City Center
Thu 02:36:22 PM 38.7206 -96.3761 220° Southwest 397 457 22,800 -1,381 Descending Kansas City Center
Thu 02:37:26 PM 38.6428 -96.4672 222° Southwest 395 455 21,400 -1,694 Descending Kansas City Center
Thu 02:38:26 PM 38.5644 -96.5750 227° Southwest 366 421 19,300 -1,790 Descending Kansas City Center
Thu 02:39:30 PM 38.5086 -96.6614 230° Southwest 331 381 17,700 -1,790 Descending Kansas City Center
Thu 02:40:30 PM 38.4389 -96.7303 218° Southwest 316 364 15,600 -2,016 Descending Kansas City Center
Thu 02:41:32 PM 38.3661 -96.8028 218° Southwest 329 379 13,600 -2,175 Descending Kansas City Center
Thu 02:41:50 PM 38.3297 -96.8347 215° Southwest 341 392 12,700 -2,250 Descending Kansas City Center
Thu 02:42:36 PM 38.2744 -96.8922 219° Southwest 344 396 11,200 -1,744 Descending Kansas City Center
Thu 02:43:16 PM 38.2283 -96.9339 215° Southwest 338 389 10,200 -1,672 Descending Kansas City Center
Thu 02:43:37 PM 38.2042 -96.9597 220° Southwest 322 371 9,500 -1,778 Descending Kansas City Center
Thu 02:44:10 PM 38.1689 -96.9914 215° Southwest 283 326 8,600 -1,700 Descending Kansas City Center
Thu 02:44:37 PM 38.1408 -97.0158 214° Southwest 282 325 7,800 -1,400 Descending Kansas City Center
Thu 02:45:10 PM 38.1011 -97.0478 212° Southwest 267 307 7,200 -1,015 Descending Kansas City Center
Thu 02:45:42 PM 38.0792 -97.0692 217° Southwest 268 308 6,700 -1,065 Descending Kansas City Center
Thu 02:46:12 PM 38.0411 -97.0997 212° Southwest 264 304 6,100 -700 Descending Kansas City Center
Thu 02:46:42 PM 38.0197 -97.1247 223° Southwest 265 305 6,000 -109 Descending Kansas City Center
Thu 02:47:07 PM 37.9922 -97.1581 224° Southwest 263 303 6,000  Level Kansas City Center
Thu 02:47:46 PM 37.9667 -97.1886 223° Southwest 262 302 6,000  Level Kansas City Center
Thu 02:48:05 PM 37.9375 -97.2197 220° Southwest 263 303 6,000  Level Kansas City Center
Thu 02:48:47 PM 37.9133 -97.2525 227° Southwest 264 304 6,000  Level Kansas City Center
Thu 02:49:14 PM 37.8811 -97.2872 220° Southwest 263 303 6,000 -197 Level Kansas City Center
Thu 02:49:48 PM 37.8492 -97.3267 224° Southwest 259 298 5,800 -590 Descending Kansas City Center
Thu 02:50:15 PM 37.8236 -97.3439 208° Southwest 239 275 5,400 -1,143 Descending Kansas City Center
Thu 02:50:51 PM 37.7922 -97.3569 198° South 228 262 4,600 -1,778 Descending Kansas City Center
Thu 02:51:09 PM 37.7689 -97.3656 196° South 221 254 3,800 -1,574 Descending Kansas City Center
Thu 02:51:52 PM 37.7325 -97.3856 203° Southwest 228 262 3,000 -1,279 Descending Kansas City Center
Thu 02:52:10 PM 37.7147 -97.3925 197° South 198 228 2,500 -938 Descending Kansas City Center
Thu 02:52:56 PM 37.6925 -97.4047 204° Southwest 184 212 2,000 -787 Descending Kansas City Center
Thu 02:53:11 PM 37.6806 -97.4083 193° South 112 129 1,700 -590 Descending Kansas City Center
Thu 02:53:57 PM 37.6578 -97.4208 203° Southwest 147 169 1,400 -391 Descending Kansas City Center
Thu 02:55:00 PM 37.6499 -97.4331 202° Southwest  Level Estimated
Thu 03:02:00 PM 37.6499 -97.4331 202° Southwest  Level Estimated
Thu 03:03:00 PM 37.6499 -97.4331 202° Southwest  Level Estimated
Thu 03:04:00 PM 37.6499 -97.4331 202° Southwest  Level Estimated
Thu 03:05:00 PM 37.6499 -97.4331 202° Southwest  Level Estimated

Login

Don't have an account? Register now (free) for customized features, flight alerts, and more!